createdAt,value
2018-12-20T00:00:01.327Z,62.87
2018-12-20T00:00:42.175Z,62.48
2018-12-20T00:01:22.829Z,62.48
2018-12-20T00:02:03.568Z,62.19
2018-12-20T00:02:44.268Z,62.39
2018-12-20T00:03:25.158Z,62.1
2018-12-20T00:04:05.927Z,61.91
2018-12-20T00:04:46.652Z,62.39
2018-12-20T00:05:27.352Z,62.19
2018-12-20T00:06:08.128Z,62.19
2018-12-20T00:06:48.979Z,61.91
2018-12-20T00:07:29.924Z,62.48
2018-12-20T00:08:10.472Z,61.72
2018-12-20T00:08:51.197Z,61.72
2018-12-20T00:09:31.891Z,62.29
2018-12-20T00:10:12.714Z,62.1
2018-12-20T00:10:53.650Z,62.01
2018-12-20T00:11:34.373Z,62.01
2018-12-20T00:12:15.126Z,61.81
2018-12-20T00:12:55.978Z,61.91
2018-12-20T00:13:36.760Z,62.19
2018-12-20T00:14:17.490Z,62.29
2018-12-20T00:14:58.143Z,62.29
2018-12-20T00:15:39.026Z,62.19
2018-12-20T00:16:19.716Z,62.29
2018-12-20T00:17:00.472Z,62.29
2018-12-20T00:17:41.371Z,62.39
2018-12-20T00:18:22.041Z,62.29
2018-12-20T00:19:02.739Z,61.91
2018-12-20T00:19:43.437Z,62.1
2018-12-20T00:20:24.219Z,62.19
2018-12-20T00:21:04.981Z,62.19
2018-12-20T00:21:45.743Z,62.19
2018-12-20T00:22:26.460Z,61.91
2018-12-20T00:23:07.362Z,61.91
2018-12-20T00:23:48.088Z,61.91
2018-12-20T00:24:28.840Z,61.81
2018-12-20T00:25:09.652Z,62.19
2018-12-20T00:25:50.392Z,62.19
2018-12-20T00:26:31.086Z,62.19
2018-12-20T00:27:11.821Z,61.91
2018-12-20T00:27:52.657Z,62.19
2018-12-20T00:28:33.396Z,62.1
2018-12-20T00:29:14.160Z,62.1
2018-12-20T00:29:54.884Z,62.01
2018-12-20T00:30:35.671Z,62.19
2018-12-20T00:31:16.412Z,61.91
2018-12-20T00:31:57.148Z,61.91
2018-12-20T00:32:37.940Z,61.81
2018-12-20T00:33:18.597Z,62.01
2018-12-20T00:33:59.391Z,61.72
2018-12-20T00:34:40.174Z,61.91
2018-12-20T00:35:20.872Z,61.33
2018-12-20T00:36:01.834Z,61.24
2018-12-20T00:36:42.433Z,61.24
2018-12-20T00:37:23.465Z,61.43
2018-12-20T00:38:03.986Z,61.43
2018-12-20T00:38:44.753Z,61.43
2018-12-20T00:39:25.615Z,61.62
2018-12-20T00:40:07.002Z,61.14
2018-12-20T00:40:47.113Z,61.14
2018-12-20T00:41:27.944Z,61.52
2018-12-20T00:42:08.699Z,61.52
2018-12-20T00:42:49.361Z,61.52
2018-12-20T00:43:30.200Z,61.43
2018-12-20T00:44:11.061Z,61.43
2018-12-20T00:44:51.747Z,61.62
2018-12-20T00:45:32.465Z,61.62
2018-12-20T00:46:13.271Z,61.62
2018-12-20T00:46:54.063Z,61.62
2018-12-20T00:47:34.855Z,61.72
2018-12-20T00:48:15.426Z,61.62
2018-12-20T00:48:56.305Z,61.72
2018-12-20T00:49:36.988Z,61.72
2018-12-20T00:50:17.776Z,61.72
2018-12-20T00:50:58.528Z,61.52
2018-12-20T00:51:39.339Z,61.72
2018-12-20T00:52:19.973Z,61.52
2018-12-20T00:53:00.739Z,61.43
2018-12-20T00:53:41.522Z,61.72
2018-12-20T00:54:22.316Z,61.62
2018-12-20T00:55:03.301Z,61.33
2018-12-20T00:55:43.969Z,61.81
2018-12-20T00:56:24.536Z,61.62
2018-12-20T00:57:05.479Z,61.52
2018-12-20T00:57:46.147Z,61.43
2018-12-20T00:58:26.953Z,61.33
2018-12-20T00:59:07.616Z,61.24
2018-12-20T00:59:48.392Z,60.57
2018-12-20T01:00:29.224Z,60.75
2018-12-20T01:01:09.999Z,60.57
2018-12-20T01:01:50.824Z,60.75
2018-12-20T01:02:31.541Z,60.75
2018-12-20T01:03:12.302Z,61.14
2018-12-20T01:03:53.051Z,61.14
2018-12-20T01:04:33.800Z,61.72
2018-12-20T01:05:14.657Z,61.52
2018-12-20T01:05:55.378Z,61.33
2018-12-20T01:06:36.129Z,61.62
2018-12-20T01:07:17.024Z,61.43
2018-12-20T01:07:57.805Z,61.62
2018-12-20T01:08:38.640Z,61.52
2018-12-20T01:09:19.375Z,61.81
2018-12-20T01:10:00.107Z,61.72
2018-12-20T01:10:40.861Z,61.62
2018-12-20T01:11:21.557Z,61.52
2018-12-20T01:12:02.414Z,61.72
2018-12-20T01:12:42.982Z,61.43
2018-12-20T01:13:23.820Z,61.14
2018-12-20T01:14:04.560Z,61.43
2018-12-20T01:14:45.857Z,61.81
2018-12-20T01:15:26.141Z,61.33
2018-12-20T01:16:06.985Z,61.62
2018-12-20T01:16:47.758Z,61.81
2018-12-20T01:17:28.455Z,61.72
2018-12-20T01:18:09.259Z,61.33
2018-12-20T01:18:49.894Z,61.72
2018-12-20T01:19:30.624Z,61.52
2018-12-20T01:20:11.502Z,61.43
2018-12-20T01:20:52.256Z,61.43
2018-12-20T01:21:33.054Z,61.52
2018-12-20T01:22:13.790Z,61.33
2018-12-20T01:22:54.573Z,61.24
2018-12-20T01:23:35.417Z,61.43
2018-12-20T01:24:16.174Z,61.43
2018-12-20T01:24:56.767Z,61.62
2018-12-20T01:25:37.510Z,61.33
2018-12-20T01:26:18.281Z,61.33
2018-12-20T01:26:59.082Z,61.43
2018-12-20T01:27:39.916Z,61.14
2018-12-20T01:28:20.627Z,61.62
2018-12-20T01:29:01.316Z,61.52
2018-12-20T01:29:42.096Z,61.72
2018-12-20T01:30:22.933Z,61.43
2018-12-20T01:31:03.694Z,61.14
2018-12-20T01:31:44.458Z,61.14
2018-12-20T01:32:25.143Z,61.33
2018-12-20T01:33:05.914Z,61.33
2018-12-20T01:33:46.665Z,61.33
2018-12-20T01:34:27.520Z,61.43
2018-12-20T01:35:08.368Z,61.43
2018-12-20T01:35:49.033Z,61.24
2018-12-20T01:36:29.949Z,61.43
2018-12-20T01:37:10.480Z,61.14
2018-12-20T01:37:51.218Z,61.43
2018-12-20T01:38:32.140Z,61.52
2018-12-20T01:39:12.910Z,61.33
2018-12-20T01:39:53.623Z,61.33
2018-12-20T01:40:34.375Z,61.62
2018-12-20T01:41:15.096Z,61.43
2018-12-20T01:41:55.965Z,61.72
2018-12-20T01:42:36.751Z,61.52
2018-12-20T01:43:17.339Z,61.72
2018-12-20T01:43:58.220Z,61.62
2018-12-20T01:44:38.891Z,61.52
2018-12-20T01:45:19.620Z,61.52
2018-12-20T01:46:00.530Z,61.24
2018-12-20T01:46:41.231Z,61.43
2018-12-20T01:47:22.007Z,61.62
2018-12-20T01:48:02.734Z,60.57
2018-12-20T01:48:43.463Z,61.14
2018-12-20T01:49:24.283Z,60.66
2018-12-20T01:50:05.093Z,60.85
2018-12-20T01:50:45.761Z,60.95
2018-12-20T01:51:26.464Z,61.24
2018-12-20T01:52:07.105Z,61.81
2018-12-20T01:52:47.995Z,61.33
2018-12-20T01:53:28.743Z,61.43
2018-12-20T01:54:09.486Z,61.72
2018-12-20T01:54:50.169Z,61.62
2018-12-20T01:55:30.908Z,61.14
2018-12-20T01:56:11.575Z,60.47
2018-12-20T01:56:52.371Z,60.57
2018-12-20T01:57:33.317Z,60.57
2018-12-20T01:58:13.815Z,60.85
2018-12-20T01:58:54.589Z,60.66
2018-12-20T01:59:35.424Z,60.75
2018-12-20T02:00:16.247Z,60.75
2018-12-20T02:00:56.991Z,60.38
2018-12-20T02:01:37.758Z,60.28
2018-12-20T02:02:18.609Z,60.38
2018-12-20T02:02:59.283Z,60.28
2018-12-20T02:03:40.059Z,60.08
2018-12-20T02:04:20.945Z,60.38
2018-12-20T02:05:01.592Z,59.89
2018-12-20T02:05:42.250Z,60.38
2018-12-20T02:06:22.971Z,60.18
2018-12-20T02:07:03.758Z,60.28
2018-12-20T02:07:44.506Z,60.47
2018-12-20T02:08:25.296Z,60.18
2018-12-20T02:09:06.052Z,60.08
2018-12-20T02:09:46.788Z,60.18
2018-12-20T02:10:27.704Z,60.47
2018-12-20T02:11:08.534Z,60.47
2018-12-20T02:11:49.988Z,60.57
2018-12-20T02:12:30.144Z,59.89
2018-12-20T02:13:11.062Z,59.99
2018-12-20T02:13:51.898Z,59.99
2018-12-20T02:14:32.699Z,60.08
2018-12-20T02:15:13.597Z,59.8
2018-12-20T02:15:54.263Z,59.89
2018-12-20T02:16:35.018Z,60.66
2018-12-20T02:17:15.998Z,60.08
2018-12-20T02:17:56.582Z,59.7
2018-12-20T02:18:37.364Z,60.08
2018-12-20T02:19:18.154Z,59.89
2018-12-20T02:19:58.901Z,59.7
2018-12-20T02:20:39.670Z,59.7
2018-12-20T02:21:20.526Z,59.8
2018-12-20T02:22:01.261Z,59.8
2018-12-20T02:22:42.038Z,59.99
2018-12-20T02:23:22.858Z,59.8
2018-12-20T02:24:03.688Z,59.41
2018-12-20T02:24:44.306Z,59.22
2018-12-20T02:25:25.040Z,59.8
2018-12-20T02:26:05.657Z,60.18
2018-12-20T02:26:46.555Z,59.99
2018-12-20T02:27:27.339Z,59.99
2018-12-20T02:28:08.191Z,59.61
2018-12-20T02:28:49.021Z,59.99
2018-12-20T02:29:29.676Z,59.89
2018-12-20T02:30:10.268Z,60.28
2018-12-20T02:30:51.091Z,60.66
2018-12-20T02:31:31.709Z,59.89
2018-12-20T02:32:12.573Z,60.18
2018-12-20T02:32:53.393Z,60.08
2018-12-20T02:33:33.950Z,60.08
2018-12-20T02:34:14.834Z,59.89
2018-12-20T02:34:55.704Z,59.7
2018-12-20T02:35:36.507Z,59.8
2018-12-20T02:36:17.102Z,59.7
2018-12-20T02:36:57.894Z,59.7
2018-12-20T02:37:38.567Z,59.99
2018-12-20T02:38:19.522Z,59.99
2018-12-20T02:39:00.162Z,60.28
2018-12-20T02:39:41.175Z,59.89
2018-12-20T02:40:21.662Z,59.99
2018-12-20T02:41:02.440Z,59.99
2018-12-20T02:41:43.190Z,59.7
2018-12-20T02:42:23.946Z,59.99
2018-12-20T02:43:04.811Z,59.89
2018-12-20T02:43:45.415Z,59.8
2018-12-20T02:44:26.421Z,59.89
2018-12-20T02:45:10.878Z,60.47
2018-12-20T02:45:47.806Z,59.99
2018-12-20T02:46:28.565Z,59.7
2018-12-20T02:47:09.451Z,59.8
2018-12-20T02:47:49.948Z,59.61
2018-12-20T02:48:30.689Z,59.8
2018-12-20T02:49:11.591Z,59.99
2018-12-20T02:49:52.259Z,59.61
2018-12-20T02:50:33.086Z,59.32
2018-12-20T02:51:13.994Z,59.61
2018-12-20T02:51:54.666Z,59.51
2018-12-20T02:52:35.712Z,59.89
2018-12-20T02:53:16.233Z,59.8
2018-12-20T02:53:57.016Z,59.7
2018-12-20T02:54:37.743Z,59.89
2018-12-20T02:55:18.710Z,59.99
2018-12-20T02:55:59.238Z,59.7
2018-12-20T02:56:39.936Z,59.89
2018-12-20T02:57:20.698Z,59.7
2018-12-20T02:58:01.639Z,59.89
2018-12-20T02:58:42.450Z,59.99
2018-12-20T02:59:23.020Z,59.99
2018-12-20T03:00:03.741Z,60.18
2018-12-20T03:00:44.615Z,59.89
2018-12-20T03:01:25.322Z,59.89
2018-12-20T03:02:06.092Z,59.51
2018-12-20T03:02:46.756Z,59.51
2018-12-20T03:03:27.793Z,59.61
2018-12-20T03:04:08.250Z,59.99
2018-12-20T03:04:49.121Z,59.8
2018-12-20T03:05:30.032Z,59.51
2018-12-20T03:06:10.708Z,59.8
2018-12-20T03:06:51.377Z,59.99
2018-12-20T03:07:32.134Z,59.99
2018-12-20T03:08:12.976Z,60.18
2018-12-20T03:08:53.682Z,59.99
2018-12-20T03:09:34.364Z,59.99
2018-12-20T03:10:15.181Z,59.7
2018-12-20T03:10:55.980Z,59.7
2018-12-20T03:11:36.817Z,59.99
2018-12-20T03:12:17.568Z,60.08
2018-12-20T03:12:58.401Z,59.61
2018-12-20T03:13:39.007Z,59.8
2018-12-20T03:14:19.745Z,59.51
2018-12-20T03:15:00.592Z,59.8
2018-12-20T03:15:41.316Z,59.61
2018-12-20T03:16:21.992Z,59.8
2018-12-20T03:17:02.807Z,59.8
2018-12-20T03:17:43.581Z,59.8
2018-12-20T03:18:24.370Z,59.7
2018-12-20T03:19:05.117Z,59.89
2018-12-20T03:19:45.871Z,60.85
2018-12-20T03:20:26.619Z,60.38
2018-12-20T03:21:07.539Z,59.7
2018-12-20T03:21:48.338Z,59.8
2018-12-20T03:22:29.094Z,59.7
2018-12-20T03:23:09.792Z,59.7
2018-12-20T03:23:50.540Z,59.99
2018-12-20T03:24:31.317Z,59.89
2018-12-20T03:25:12.114Z,59.41
2018-12-20T03:25:52.975Z,59.89
2018-12-20T03:26:33.514Z,59.8
2018-12-20T03:27:14.246Z,59.89
2018-12-20T03:27:55.261Z,59.99
2018-12-20T03:28:35.857Z,60.08
2018-12-20T03:29:16.687Z,59.8
2018-12-20T03:29:57.382Z,59.89
2018-12-20T03:30:38.175Z,59.61
2018-12-20T03:31:19.165Z,59.7
2018-12-20T03:32:00.110Z,59.51
2018-12-20T03:32:40.589Z,59.99
2018-12-20T03:33:21.272Z,59.99
2018-12-20T03:34:02.045Z,59.89
2018-12-20T03:34:42.804Z,60.08
2018-12-20T03:35:23.471Z,59.89
2018-12-20T03:36:04.275Z,59.89
2018-12-20T03:36:45.114Z,59.99
2018-12-20T03:37:26.050Z,60.28
2018-12-20T03:38:06.726Z,60.38
2018-12-20T03:38:47.456Z,60.28
2018-12-20T03:39:28.142Z,60.66
2018-12-20T03:40:09.041Z,60.18
2018-12-20T03:40:49.862Z,59.99
2018-12-20T03:41:30.556Z,59.89
2018-12-20T03:42:11.159Z,59.89
2018-12-20T03:42:51.929Z,59.51
2018-12-20T03:43:32.731Z,59.51
2018-12-20T03:44:13.565Z,59.89
2018-12-20T03:44:54.364Z,60.47
2018-12-20T03:45:35.022Z,60.28
2018-12-20T03:46:15.747Z,59.89
2018-12-20T03:46:56.633Z,60.18
2018-12-20T03:47:37.317Z,60.47
2018-12-20T03:48:18.309Z,60.28
2018-12-20T03:48:58.917Z,60.57
2018-12-20T03:49:39.711Z,60.47
2018-12-20T03:50:20.400Z,60.28
2018-12-20T03:51:01.297Z,60.66
2018-12-20T03:51:42.130Z,59.89
2018-12-20T03:52:22.771Z,59.89
2018-12-20T03:53:03.544Z,59.89
2018-12-20T03:53:44.479Z,60.28
2018-12-20T03:54:24.990Z,60.57
2018-12-20T03:55:05.884Z,60.47
2018-12-20T03:55:46.689Z,60.47
2018-12-20T03:56:27.335Z,60.08
2018-12-20T03:57:07.987Z,60.18
2018-12-20T03:57:48.867Z,60.38
2018-12-20T03:58:29.596Z,60.38
2018-12-20T03:59:10.291Z,60.47
2018-12-20T03:59:51.105Z,60.28
2018-12-20T04:00:31.842Z,60.28
2018-12-20T04:01:12.460Z,60.18
2018-12-20T04:01:53.231Z,60.28
2018-12-20T04:02:34.222Z,60.66
2018-12-20T04:03:14.680Z,59.99
2018-12-20T04:03:55.711Z,60.18
2018-12-20T04:04:36.244Z,60.18
2018-12-20T04:05:16.965Z,60.47
2018-12-20T04:05:57.841Z,60.47
2018-12-20T04:06:38.466Z,60.66
2018-12-20T04:07:19.317Z,60.38
2018-12-20T04:08:00.015Z,60.47
2018-12-20T04:08:40.709Z,60.28
2018-12-20T04:09:21.497Z,60.57
2018-12-20T04:10:02.627Z,60.57
2018-12-20T04:10:43.052Z,60.47
2018-12-20T04:11:23.975Z,60.28
2018-12-20T04:12:04.539Z,60.08
2018-12-20T04:12:45.430Z,60.28
2018-12-20T04:13:26.063Z,60.47
2018-12-20T04:14:06.938Z,60.38
2018-12-20T04:14:47.877Z,60.47
2018-12-20T04:15:28.528Z,60.38
2018-12-20T04:16:09.277Z,60.08
2018-12-20T04:16:50.244Z,60.18
2018-12-20T04:17:30.809Z,60.18
2018-12-20T04:18:11.505Z,60.38
2018-12-20T04:18:52.339Z,60.47
2018-12-20T04:19:32.928Z,60.57
2018-12-20T04:20:13.720Z,60.47
2018-12-20T04:20:54.577Z,60.47
2018-12-20T04:21:35.165Z,60.57
2018-12-20T04:22:16.008Z,60.57
2018-12-20T04:22:56.716Z,60.28
2018-12-20T04:23:37.714Z,60.47
2018-12-20T04:24:18.283Z,60.18
2018-12-20T04:24:59.109Z,60.28
2018-12-20T04:25:39.966Z,60.08
2018-12-20T04:26:20.549Z,60.08
2018-12-20T04:27:01.219Z,60.47
2018-12-20T04:27:42.125Z,60.47
2018-12-20T04:28:22.749Z,60.57
2018-12-20T04:29:03.584Z,60.28
2018-12-20T04:29:44.678Z,60.08
2018-12-20T04:30:25.456Z,59.89
2018-12-20T04:31:05.976Z,59.61
2018-12-20T04:31:46.651Z,59.8
2018-12-20T04:32:27.580Z,60.28
2018-12-20T04:33:08.181Z,60.18
2018-12-20T04:33:48.886Z,59.99
2018-12-20T04:34:29.603Z,59.99
2018-12-20T04:35:10.442Z,59.7
2018-12-20T04:35:51.175Z,59.7
2018-12-20T04:36:31.984Z,60.08
2018-12-20T04:37:12.692Z,60.57
2018-12-20T04:37:53.440Z,60.57
2018-12-20T04:38:34.280Z,60.66
2018-12-20T04:39:15.172Z,60.28
2018-12-20T04:39:55.899Z,60.38
2018-12-20T04:40:36.417Z,60.57
2018-12-20T04:41:17.148Z,60.57
2018-12-20T04:41:57.979Z,60.28
2018-12-20T04:42:38.735Z,60.47
2018-12-20T04:43:19.455Z,60.38
2018-12-20T04:44:00.291Z,60.28
2018-12-20T04:44:41.046Z,60.57
2018-12-20T04:45:22.033Z,60.28
2018-12-20T04:46:02.509Z,59.89
2018-12-20T04:46:43.439Z,59.89
2018-12-20T04:47:24.152Z,59.89
2018-12-20T04:48:04.816Z,59.61
2018-12-20T04:48:45.664Z,59.51
2018-12-20T04:49:26.632Z,59.41
2018-12-20T04:50:07.402Z,59.61
2018-12-20T04:50:48.234Z,59.99
2018-12-20T04:51:28.763Z,59.8
2018-12-20T04:52:09.509Z,60.47
2018-12-20T04:52:50.232Z,60.38
2018-12-20T04:53:31.181Z,60.66
2018-12-20T04:54:11.961Z,60.66
2018-12-20T04:54:52.724Z,60.57
2018-12-20T04:55:33.419Z,60.57
2018-12-20T04:56:14.185Z,60.38
2018-12-20T04:56:55.101Z,60.47
2018-12-20T04:57:35.649Z,60.47
2018-12-20T04:58:16.595Z,60.28
2018-12-20T04:58:57.112Z,60.66
2018-12-20T04:59:37.970Z,60.47
2018-12-20T05:00:18.773Z,60.28
2018-12-20T05:00:59.457Z,60.28
2018-12-20T05:01:40.330Z,60.28
2018-12-20T05:02:21.280Z,60.38
2018-12-20T05:03:01.767Z,60.28
2018-12-20T05:03:42.823Z,60.28
2018-12-20T05:04:23.203Z,60.38
2018-12-20T05:05:03.993Z,60.47
2018-12-20T05:05:44.835Z,60.66
2018-12-20T05:06:25.617Z,60.08
2018-12-20T05:07:06.452Z,59.51
2018-12-20T05:07:47.532Z,59.8
2018-12-20T05:08:27.940Z,60.08
2018-12-20T05:09:08.721Z,60.47
2018-12-20T05:09:49.475Z,60.47
2018-12-20T05:10:30.367Z,59.89
2018-12-20T05:11:11.075Z,59.51
2018-12-20T05:11:51.826Z,59.8
2018-12-20T05:12:32.677Z,59.51
2018-12-20T05:13:13.177Z,59.51
2018-12-20T05:13:53.886Z,59.7
2018-12-20T05:14:35.016Z,59.61
2018-12-20T05:15:15.573Z,60.28
2018-12-20T05:15:56.883Z,60.08
2018-12-20T05:16:36.992Z,60.18
2018-12-20T05:17:17.830Z,60.47
2018-12-20T05:17:58.784Z,59.99
2018-12-20T05:18:39.349Z,60.18
2018-12-20T05:19:20.165Z,59.89
2018-12-20T05:20:00.853Z,60.18
2018-12-20T05:20:41.617Z,59.89
2018-12-20T05:21:22.372Z,60.08
2018-12-20T05:22:03.354Z,60.08
2018-12-20T05:22:43.971Z,59.99
2018-12-20T05:23:24.640Z,59.8
2018-12-20T05:24:05.290Z,60.08
2018-12-20T05:24:46.062Z,59.89
2018-12-20T05:25:27.074Z,60.08
2018-12-20T05:26:07.641Z,59.89
2018-12-20T05:26:48.360Z,59.99
2018-12-20T05:27:29.131Z,59.61
2018-12-20T05:28:09.894Z,59.7
2018-12-20T05:28:50.903Z,60.08
2018-12-20T05:29:31.618Z,59.7
2018-12-20T05:30:12.187Z,59.99
2018-12-20T05:30:52.886Z,60.18
2018-12-20T05:31:33.643Z,60.08
2018-12-20T05:32:14.650Z,60.18
2018-12-20T05:32:55.360Z,59.99
2018-12-20T05:33:36.114Z,59.89
2018-12-20T05:34:16.663Z,59.8
2018-12-20T05:34:57.667Z,60.08
2018-12-20T05:35:38.295Z,59.99
2018-12-20T05:36:19.136Z,59.99
2018-12-20T05:36:59.728Z,59.7
2018-12-20T05:37:40.452Z,60.08
2018-12-20T05:38:21.400Z,60.18
2018-12-20T05:39:02.133Z,59.8
2018-12-20T05:39:43.139Z,59.8
2018-12-20T05:40:23.683Z,59.77
2018-12-20T05:41:04.656Z,59.99
2018-12-20T05:41:45.306Z,60.18
2018-12-20T05:42:26.019Z,59.89
2018-12-20T05:43:06.880Z,59.41
2018-12-20T05:43:47.522Z,60.28
2018-12-20T05:44:28.319Z,59.38
2018-12-20T05:45:09.094Z,59.48
2018-12-20T05:45:50.016Z,59.22
2018-12-20T05:46:30.735Z,59.29
2018-12-20T05:47:11.414Z,59.8
2018-12-20T05:47:52.404Z,60.38
2018-12-20T05:48:33.196Z,60.18
2018-12-20T05:49:13.733Z,60.38
2018-12-20T05:49:54.461Z,60.66
2018-12-20T05:50:35.461Z,60.85
2018-12-20T05:51:16.004Z,61.05
2018-12-20T05:51:56.794Z,60.57
2018-12-20T05:52:37.702Z,61.05
2018-12-20T05:53:18.453Z,61.72
2018-12-20T05:53:59.224Z,60.75
2018-12-20T05:54:39.919Z,60.75
2018-12-20T05:55:20.682Z,61.14
2018-12-20T05:56:01.352Z,60.28
2018-12-20T05:56:42.117Z,59.51
2018-12-20T05:57:22.874Z,59.7
2018-12-20T05:58:03.898Z,59.41
2018-12-20T05:58:44.622Z,59.8
2018-12-20T05:59:25.278Z,59.7
2018-12-20T06:00:05.995Z,59.8
2018-12-20T06:00:46.781Z,60.47
2018-12-20T06:01:27.654Z,60.28
2018-12-20T06:02:08.373Z,60.47
2018-12-20T06:02:49.171Z,60.18
2018-12-20T06:03:29.790Z,60.75
2018-12-20T06:04:11.592Z,60.38
2018-12-20T06:04:51.358Z,59.89
2018-12-20T06:05:32.306Z,59.61
2018-12-20T06:06:12.876Z,59.67
2018-12-20T06:06:53.769Z,60.08
2018-12-20T06:07:34.289Z,59.99
2018-12-20T06:08:15.092Z,60.18
2018-12-20T06:08:55.919Z,60.66
2018-12-20T06:09:36.623Z,60.38
2018-12-20T06:10:17.417Z,60.63
2018-12-20T06:10:58.234Z,59.67
2018-12-20T06:11:38.975Z,59.51
2018-12-20T06:12:19.895Z,59.51
2018-12-20T06:13:00.645Z,59.77
2018-12-20T06:13:41.438Z,60.18
2018-12-20T06:14:21.967Z,59.77
2018-12-20T06:15:02.808Z,60.15
2018-12-20T06:15:43.546Z,59.8
2018-12-20T06:16:24.343Z,60.05
2018-12-20T06:17:05.165Z,59.61
2018-12-20T06:17:45.841Z,60.08
2018-12-20T06:18:26.662Z,59.86
2018-12-20T06:19:07.472Z,60.44
2018-12-20T06:19:48.278Z,59.96
2018-12-20T06:20:28.915Z,60.05
2018-12-20T06:21:09.871Z,59.8
2018-12-20T06:21:50.424Z,59.38
2018-12-20T06:22:31.153Z,59.8
2018-12-20T06:23:11.846Z,59.7
2018-12-20T06:23:52.686Z,59.7
2018-12-20T06:24:33.467Z,59.89
2018-12-20T06:25:14.256Z,59.7
2018-12-20T06:25:54.981Z,59.8
2018-12-20T06:26:35.762Z,59.38
2018-12-20T06:27:16.607Z,59.67
2018-12-20T06:27:57.305Z,59.51
2018-12-20T06:28:38.109Z,60.15
2018-12-20T06:29:18.797Z,59.32
2018-12-20T06:29:59.564Z,59.61
2018-12-20T06:30:40.366Z,59.86
2018-12-20T06:31:21.166Z,59.67
2018-12-20T06:32:01.951Z,59.48
2018-12-20T06:32:42.644Z,59.61
2018-12-20T06:33:23.396Z,59.22
2018-12-20T06:34:04.160Z,59.48
2018-12-20T06:34:44.988Z,59.7
2018-12-20T06:35:25.836Z,59.48
2018-12-20T06:36:06.544Z,59.58
2018-12-20T06:36:47.343Z,60.15
2018-12-20T06:37:28.168Z,59.86
2018-12-20T06:38:08.971Z,59.48
2018-12-20T06:38:49.736Z,59.86
2018-12-20T06:39:30.459Z,59.67
2018-12-20T06:40:11.296Z,59.09
2018-12-20T06:40:52.047Z,59.58
2018-12-20T06:41:32.877Z,59.29
2018-12-20T06:42:13.563Z,59.58
2018-12-20T06:42:54.267Z,59.38
2018-12-20T06:43:35.102Z,59.67
2018-12-20T06:44:15.843Z,59.58
2018-12-20T06:44:56.541Z,59.58
2018-12-20T06:45:37.359Z,59.67
2018-12-20T06:46:21.222Z,60.05
2018-12-20T06:46:58.965Z,59.58
2018-12-20T06:47:39.711Z,59.99
2018-12-20T06:48:20.427Z,60.15
2018-12-20T06:49:01.167Z,60.05
2018-12-20T06:49:41.911Z,60.05
2018-12-20T06:50:22.697Z,59.86
2018-12-20T06:51:03.551Z,59.29
2018-12-20T06:51:44.291Z,59.67
2018-12-20T06:52:24.996Z,59.67
2018-12-20T06:53:05.787Z,59.29
2018-12-20T06:53:46.603Z,59.67
2018-12-20T06:54:27.300Z,59.48
2018-12-20T06:55:07.993Z,59.19
2018-12-20T06:55:48.701Z,59.58
2018-12-20T06:56:29.486Z,59.48
2018-12-20T06:57:10.238Z,59.48
2018-12-20T06:57:51.005Z,59.29
2018-12-20T06:58:31.778Z,59.58
2018-12-20T06:59:12.554Z,59.67
2018-12-20T06:59:53.437Z,60.05
2018-12-20T07:00:34.264Z,59.32
2018-12-20T07:01:15.059Z,59.58
2018-12-20T07:01:55.815Z,59.38
2018-12-20T07:02:38.495Z,59.29
2018-12-20T07:03:17.280Z,60.08
2018-12-20T07:03:58.010Z,59.41
2018-12-20T07:04:38.734Z,59.86
2018-12-20T07:05:19.523Z,59.96
2018-12-20T07:06:00.320Z,59.29
2018-12-20T07:06:41.116Z,59.96
2018-12-20T07:07:21.855Z,59.48
2018-12-20T07:08:02.606Z,59.51
2018-12-20T07:08:43.379Z,59.48
2018-12-20T07:09:24.192Z,59.19
2018-12-20T07:10:05.021Z,59.19
2018-12-20T07:10:45.767Z,58.91
2018-12-20T07:11:26.494Z,58.91
2018-12-20T07:12:07.268Z,59.09
2018-12-20T07:12:48.099Z,59.29
2018-12-20T07:13:28.852Z,59.41
2018-12-20T07:14:09.588Z,59
2018-12-20T07:14:50.334Z,59.29
2018-12-20T07:15:31.102Z,59.38
2018-12-20T07:16:11.917Z,60.05
2018-12-20T07:16:52.694Z,59.38
2018-12-20T07:17:33.557Z,59.09
2018-12-20T07:18:14.331Z,59.09
2018-12-20T07:18:55.072Z,59.03
2018-12-20T07:19:35.902Z,59.58
2018-12-20T07:20:16.608Z,59.51
2018-12-20T07:20:57.285Z,59.32
2018-12-20T07:21:37.979Z,59.96
2018-12-20T07:22:18.782Z,59.86
2018-12-20T07:22:59.660Z,59.96
2018-12-20T07:23:40.477Z,59.89
2018-12-20T07:24:21.259Z,59.96
2018-12-20T07:25:02.073Z,59.99
2018-12-20T07:25:42.902Z,59.99
2018-12-20T07:26:23.626Z,59.99
2018-12-20T07:27:04.463Z,59.96
2018-12-20T07:27:45.195Z,59.51
2018-12-20T07:28:25.922Z,59.7
2018-12-20T07:29:06.722Z,60.85
2018-12-20T07:29:47.508Z,60.85
2018-12-20T07:30:28.300Z,60.66
2018-12-20T07:31:09.029Z,60.75
2018-12-20T07:31:49.876Z,62.01
2018-12-20T07:32:30.703Z,62.1
2018-12-20T07:33:11.400Z,63.06
2018-12-20T07:33:52.109Z,63.35
2018-12-20T07:34:32.854Z,62.68
2018-12-20T07:35:13.597Z,62.58
2018-12-20T07:35:54.393Z,62.77
2018-12-20T07:36:35.125Z,62.48
2018-12-20T07:37:15.865Z,63.06
2018-12-20T07:37:56.731Z,62.68
2018-12-20T07:38:37.526Z,62.29
2018-12-20T07:39:18.304Z,62.39
2018-12-20T07:39:58.981Z,62.87
2018-12-20T07:40:39.798Z,62.48
2018-12-20T07:41:20.537Z,62.58
2018-12-20T07:42:01.327Z,62.48
2018-12-20T07:42:42.082Z,62.58
2018-12-20T07:43:22.900Z,62.1
2018-12-20T07:44:03.600Z,62.48
2018-12-20T07:44:44.305Z,62.87
2018-12-20T07:45:25.142Z,62.87
2018-12-20T07:46:05.918Z,63.06
2018-12-20T07:46:47.379Z,63.16
2018-12-20T07:47:28.115Z,62.96
2018-12-20T07:48:08.834Z,63.35
2018-12-20T07:48:49.650Z,63.25
2018-12-20T07:49:30.467Z,63.16
2018-12-20T07:50:11.293Z,63.16
2018-12-20T07:50:52.020Z,63.06
2018-12-20T07:51:32.834Z,63.73
2018-12-20T07:52:13.425Z,63.06
2018-12-20T07:52:54.191Z,63.54
2018-12-20T07:53:34.992Z,63.35
2018-12-20T07:54:15.694Z,63.45
2018-12-20T07:54:56.514Z,63.45
2018-12-20T07:55:37.291Z,64.12
2018-12-20T07:56:18.095Z,64.12
2018-12-20T07:56:58.853Z,63.45
2018-12-20T07:57:39.597Z,63.64
2018-12-20T07:58:20.285Z,63.83
2018-12-20T07:59:01.026Z,63.92
2018-12-20T07:59:41.868Z,63.83
2018-12-20T08:00:22.693Z,63.92
2018-12-20T08:01:03.496Z,64.31
2018-12-20T08:01:44.174Z,64.5
2018-12-20T08:02:24.934Z,64.4
2018-12-20T08:03:05.743Z,64.5
2018-12-20T08:03:46.466Z,64.31
2018-12-20T08:04:27.219Z,64.69
2018-12-20T08:05:07.985Z,64.89
2018-12-20T08:05:48.745Z,64.69
2018-12-20T08:06:29.533Z,64.98
2018-12-20T08:07:10.272Z,64.98
2018-12-20T08:07:51.012Z,64.69
2018-12-20T08:08:31.819Z,64.89
2018-12-20T08:09:12.605Z,64.89
2018-12-20T08:09:53.439Z,65.27
2018-12-20T08:10:34.177Z,65.27
2018-12-20T08:11:14.946Z,64.98
2018-12-20T08:11:55.746Z,64.98
2018-12-20T08:12:36.498Z,64.79
2018-12-20T08:13:17.237Z,65.08
2018-12-20T08:13:57.930Z,65.27
2018-12-20T08:14:38.689Z,65.36
2018-12-20T08:15:19.476Z,65.36
2018-12-20T08:16:00.289Z,65.84
2018-12-20T08:16:45.943Z,65.84
2018-12-20T08:17:21.774Z,66.42
2018-12-20T08:18:02.503Z,66.52
2018-12-20T08:18:43.211Z,66.33
2018-12-20T08:19:24.001Z,66.52
2018-12-20T08:20:04.716Z,66.13
2018-12-20T08:20:45.460Z,66.61
2018-12-20T08:21:26.327Z,66.33
2018-12-20T08:22:07.074Z,65.56
2018-12-20T08:22:47.899Z,65.56
2018-12-20T08:23:28.625Z,65.56
2018-12-20T08:24:09.307Z,66.23
2018-12-20T08:24:50.024Z,66.52
2018-12-20T08:25:30.790Z,66.33
2018-12-20T08:26:11.700Z,65.94
2018-12-20T08:26:52.440Z,66.03
2018-12-20T08:27:33.148Z,65.56
2018-12-20T08:28:13.882Z,65.84
2018-12-20T08:28:54.706Z,65.56
2018-12-20T08:29:35.426Z,65.65
2018-12-20T08:30:16.153Z,65.65
2018-12-20T08:30:56.849Z,65.65
2018-12-20T08:31:37.561Z,65.46
2018-12-20T08:32:18.377Z,65.75
2018-12-20T08:32:59.122Z,65.56
2018-12-20T08:33:39.961Z,65.08
2018-12-20T08:34:20.704Z,64.47
2018-12-20T08:35:01.464Z,65.08
2018-12-20T08:35:43.987Z,65.36
2018-12-20T08:36:22.908Z,64.4
2018-12-20T08:37:03.697Z,64.5
2018-12-20T08:37:44.414Z,64.02
2018-12-20T08:38:25.174Z,64.5
2018-12-20T08:39:06.023Z,64.69
2018-12-20T08:39:46.833Z,64.31
2018-12-20T08:40:27.599Z,63.99
2018-12-20T08:41:09.139Z,63.92
2018-12-20T08:41:49.060Z,64.02
2018-12-20T08:42:29.886Z,64.02
2018-12-20T08:43:10.619Z,64.22
2018-12-20T08:43:51.309Z,64.5
2018-12-20T08:44:32.038Z,64.31
2018-12-20T08:45:12.842Z,64.5
2018-12-20T08:45:53.586Z,64.31
2018-12-20T08:46:34.321Z,64.12